Terminal Aerodrome Forecast
Issued by NWS

Home | Current Version | Previous Version | Text Only | Print | Product List | Glossary On
Versions: 1 2 3 4 5 6 7 8 9 10 11 12 13 14 15 16 17 18
635
FTUS44 KLIX 180520
TAFMCB
TAF
KMCB 180520Z 1806/1906 00000KT P6SM FEW200
      TEMPO 1810/1813 4SM BR
     FM181400 27006KT P6SM SCT040 PROB30 1817/1818 4SM TSRA BKN040CB
     FM181800 29006KT P6SM BKN045 PROB30 1818/1824 4SM TSRA OVC025CB
     FM190000 00000KT P6SM SCT150=

USA.gov is the U.S. government's official web portal to all federal, state and local government web resources and services.